createdAt,value
2022-07-31T00:03:30.656Z,20.23
2022-07-31T00:08:34.225Z,20.23
2022-07-31T00:13:57.540Z,20.36
2022-07-31T00:19:02.051Z,20.42
2022-07-31T00:24:05.727Z,20.58
2022-07-31T00:29:11.182Z,20.66
2022-07-31T00:34:19.935Z,20.57
2022-07-31T00:39:24.577Z,20.49
2022-07-31T00:44:28.890Z,20.35
2022-07-31T00:49:37.684Z,20.14
2022-07-31T00:54:41.807Z,20.13
2022-07-31T00:59:45.435Z,19.98
2022-07-31T01:04:49.210Z,19.74
2022-07-31T01:09:54.710Z,19.59
2022-07-31T01:15:02.885Z,19.43
2022-07-31T01:20:09.299Z,19.25
2022-07-31T01:25:25.204Z,19.14
2022-07-31T01:31:17.119Z,18.88
2022-07-31T01:36:26.100Z,18.84
2022-07-31T01:41:39.247Z,18.62
2022-07-31T01:46:45.454Z,18.75
2022-07-31T01:51:50.796Z,18.51
2022-07-31T01:56:59.858Z,18.39
2022-07-31T02:02:05.523Z,18.27
2022-07-31T02:07:11.311Z,18.09
2022-07-31T02:12:17.079Z,17.89
2022-07-31T02:17:38.428Z,17.79
2022-07-31T02:23:01.809Z,17.68
2022-07-31T02:28:10.689Z,17.65
2022-07-31T02:33:26.197Z,17.53
2022-07-31T02:38:34.168Z,17.54
2022-07-31T02:43:39.577Z,17.69
2022-07-31T02:49:03.963Z,17.57
2022-07-31T02:54:07.221Z,17.61
2022-07-31T02:59:11.481Z,17.58
2022-07-31T03:04:37.560Z,17.47
2022-07-31T03:09:52.997Z,17.45
2022-07-31T03:15:20.516Z,17.31
2022-07-31T03:20:24.429Z,17.24
2022-07-31T03:25:28.223Z,17.36
2022-07-31T03:30:31.862Z,17.31
2022-07-31T03:35:34.902Z,17.19
2022-07-31T03:40:44.120Z,17.06
2022-07-31T03:45:48.148Z,16.94
2022-07-31T03:50:52.353Z,16.88
2022-07-31T03:55:57.518Z,16.74
2022-07-31T04:01:01.569Z,16.77
2022-07-31T04:06:08.464Z,16.86
2022-07-31T04:11:12.293Z,16.88
2022-07-31T04:16:15.392Z,16.87
2022-07-31T04:21:19.431Z,16.84
2022-07-31T04:26:25.817Z,16.90
2022-07-31T04:31:39.300Z,16.96
2022-07-31T04:36:44.894Z,17.09
2022-07-31T04:41:48.010Z,17.29
2022-07-31T04:46:52.223Z,17.53
2022-07-31T04:51:55.874Z,17.93
2022-07-31T04:57:00.110Z,18.19
2022-07-31T05:02:03.550Z,18.48
2022-07-31T05:07:07.243Z,18.81
2022-07-31T05:12:10.681Z,19.13
2022-07-31T05:17:13.779Z,19.45
2022-07-31T05:22:35.520Z,19.82
2022-07-31T05:28:04.285Z,20.56
2022-07-31T05:33:13.967Z,20.71
2022-07-31T05:38:20.114Z,21.05
2022-07-31T05:44:02.062Z,21.28
2022-07-31T05:49:15.531Z,21.59
2022-07-31T05:54:22.983Z,21.90
2022-07-31T05:59:46.097Z,22.12
2022-07-31T06:04:49.803Z,22.45
2022-07-31T06:09:53.196Z,22.89
2022-07-31T06:14:56.961Z,23.32
2022-07-31T06:20:15.763Z,23.67
2022-07-31T06:25:20.016Z,24.16
2022-07-31T06:30:24.467Z,27.53
2022-07-31T06:35:27.829Z,28.47
2022-07-31T06:40:49.498Z,29.67
2022-07-31T06:46:14.847Z,30.09
2022-07-31T06:51:37.076Z,30.43
2022-07-31T06:56:41.524Z,31.18
2022-07-31T07:01:48.064Z,31.22
2022-07-31T07:06:52.121Z,31.69
2022-07-31T07:11:55.367Z,33.42
2022-07-31T07:16:59.029Z,33.41
2022-07-31T07:22:03.337Z,33.54
2022-07-31T07:27:06.827Z,32.55
2022-07-31T07:32:13.119Z,32.68
2022-07-31T07:37:18.036Z,33.86
2022-07-31T07:42:21.774Z,34.15
2022-07-31T07:47:25.478Z,33.04
2022-07-31T07:52:48.673Z,33.20
2022-07-31T07:58:18.686Z,33.17
2022-07-31T08:03:49.254Z,32.71
2022-07-31T08:08:56.108Z,33.06
2022-07-31T08:14:18.705Z,33.25
2022-07-31T08:19:42.434Z,32.88
2022-07-31T08:24:46.704Z,33.55
2022-07-31T08:29:58.665Z,33.61
2022-07-31T08:35:03.671Z,34.28
2022-07-31T08:40:07.918Z,33.24
2022-07-31T08:45:12.049Z,32.57
2022-07-31T08:50:21.781Z,33.55
2022-07-31T08:55:56.484Z,33.49
2022-07-31T09:00:55.916Z,33.52
2022-07-31T09:06:00.306Z,33.74
2022-07-31T09:11:15.579Z,33.23
2022-07-31T09:16:50.647Z,32.81
2022-07-31T09:22:00.244Z,33.47
2022-07-31T09:27:09.091Z,33.42
2022-07-31T09:32:18.013Z,33.52
2022-07-31T09:37:41.502Z,33.66
2022-07-31T09:43:03.589Z,33.25
2022-07-31T09:48:15.234Z,34.52
2022-07-31T09:53:24.364Z,34.13
2022-07-31T09:58:32.957Z,33.42
2022-07-31T10:03:38.782Z,33.58
2022-07-31T10:08:44.334Z,33.31
2022-07-31T10:14:22.866Z,34.12
2022-07-31T10:19:32.244Z,33.83
2022-07-31T10:24:56.171Z,32.87
2022-07-31T10:30:00.559Z,31.34
2022-07-31T10:35:08.167Z,32.52
2022-07-31T10:40:49.959Z,32.66
2022-07-31T10:45:55.387Z,32.27
2022-07-31T10:51:18.935Z,32.88
2022-07-31T10:56:43.707Z,33.45
2022-07-31T11:02:12.814Z,32.77
2022-07-31T11:07:23.336Z,34.20
2022-07-31T11:12:42.134Z,34.50
2022-07-31T11:18:22.651Z,35.51
2022-07-31T11:23:40.357Z,34.30
2022-07-31T11:28:59.811Z,35.44
2022-07-31T11:34:23.399Z,33.44
2022-07-31T11:39:36.737Z,32.40
2022-07-31T11:44:41.320Z,32.67
2022-07-31T11:49:48.801Z,32.48
2022-07-31T11:55:08.546Z,32.18
2022-07-31T12:00:23.202Z,33.06
2022-07-31T12:05:38.049Z,33.52
2022-07-31T12:10:44.003Z,33.54
2022-07-31T12:16:01.249Z,32.48
2022-07-31T12:21:05.630Z,31.28
2022-07-31T12:26:11.532Z,32.31
2022-07-31T12:31:14.542Z,33.46
2022-07-31T12:36:18.433Z,33.05
2022-07-31T12:41:21.640Z,33.60
2022-07-31T12:46:37.237Z,35.07
2022-07-31T12:51:46.249Z,34.83
2022-07-31T12:56:50.476Z,35.15
2022-07-31T13:01:54.256Z,34.96
2022-07-31T13:06:58.261Z,33.59
2022-07-31T13:12:01.306Z,33.69
2022-07-31T13:17:05.334Z,32.43
2022-07-31T13:22:09.309Z,33.50
2022-07-31T13:27:12.495Z,33.23
2022-07-31T13:32:16.876Z,33.38
2022-07-31T13:37:19.874Z,34.17
2022-07-31T13:42:26.430Z,35.12
2022-07-31T13:47:50.961Z,34.82
2022-07-31T13:52:54.758Z,32.70
2022-07-31T13:58:01.374Z,32.14
2022-07-31T14:03:04.587Z,31.25
2022-07-31T14:08:30.533Z,33.71
2022-07-31T14:13:30.796Z,34.00
2022-07-31T14:18:33.805Z,33.97
2022-07-31T14:23:40.788Z,33.76
2022-07-31T14:28:43.996Z,33.12
2022-07-31T14:33:46.980Z,32.45
2022-07-31T14:38:50.078Z,32.17
2022-07-31T14:43:53.093Z,30.27
2022-07-31T14:48:56.332Z,29.92
2022-07-31T14:53:59.945Z,29.69
2022-07-31T14:59:02.980Z,29.68
2022-07-31T15:04:06.979Z,29.08
2022-07-31T15:09:09.971Z,28.86
2022-07-31T15:14:13.020Z,28.22
2022-07-31T15:19:16.185Z,28.05
2022-07-31T15:24:19.451Z,27.34
2022-07-31T15:29:22.669Z,27.19
2022-07-31T15:34:25.603Z,26.75
2022-07-31T15:39:28.743Z,26.56
2022-07-31T15:44:31.958Z,26.55
2022-07-31T15:49:43.226Z,26.42
2022-07-31T15:54:51.772Z,26.29
2022-07-31T15:59:55.743Z,26.24
2022-07-31T16:05:11.059Z,26.16
2022-07-31T16:10:17.861Z,26.17
2022-07-31T16:15:21.291Z,26.28
2022-07-31T16:20:26.795Z,26.33
2022-07-31T16:25:34.733Z,26.11
2022-07-31T16:30:38.223Z,26.00
2022-07-31T16:35:41.217Z,25.63
2022-07-31T16:40:44.565Z,25.56
2022-07-31T16:45:47.632Z,25.64
2022-07-31T16:50:53.368Z,25.49
2022-07-31T16:56:00.730Z,25.43
2022-07-31T17:01:05.052Z,25.33
2022-07-31T17:06:08.149Z,25.00
2022-07-31T17:11:11.403Z,24.92
2022-07-31T17:16:14.611Z,24.69
2022-07-31T17:21:17.599Z,24.58
2022-07-31T17:26:22.286Z,24.33
2022-07-31T17:31:25.430Z,24.24
2022-07-31T17:36:29.898Z,24.20
2022-07-31T17:41:33.091Z,24.15
2022-07-31T17:46:43.978Z,24.03
2022-07-31T17:51:59.573Z,23.87
2022-07-31T17:57:04.515Z,23.82
2022-07-31T18:02:08.111Z,23.67
2022-07-31T18:07:11.737Z,23.52
2022-07-31T18:12:15.843Z,23.31
2022-07-31T18:17:22.318Z,23.29
2022-07-31T18:22:25.363Z,23.22
2022-07-31T18:27:28.695Z,23.13
2022-07-31T18:32:32.229Z,22.98
2022-07-31T18:37:35.259Z,22.97
2022-07-31T18:42:38.211Z,22.93
2022-07-31T18:47:41.210Z,22.90
2022-07-31T18:52:44.609Z,22.86
2022-07-31T18:57:47.631Z,22.83
2022-07-31T19:02:50.654Z,22.84
2022-07-31T19:07:53.671Z,22.86
2022-07-31T19:12:56.977Z,22.83
2022-07-31T19:18:02.141Z,22.78
2022-07-31T19:23:05.566Z,22.71
2022-07-31T19:28:15.598Z,22.65
2022-07-31T19:33:22.287Z,22.58
2022-07-31T19:38:26.977Z,22.55
2022-07-31T19:43:31.012Z,22.60
2022-07-31T19:48:36.595Z,22.66
2022-07-31T19:53:40.518Z,22.61
2022-07-31T19:58:43.759Z,22.63
2022-07-31T20:03:48.443Z,22.58
2022-07-31T20:08:51.749Z,22.53
2022-07-31T20:13:55.107Z,22.50
2022-07-31T20:18:58.238Z,22.47
2022-07-31T20:24:01.864Z,22.39
2022-07-31T20:29:05.373Z,22.36
2022-07-31T20:34:08.860Z,22.28
2022-07-31T20:39:12.415Z,22.16
2022-07-31T20:44:16.385Z,22.06
2022-07-31T20:49:35.643Z,22.01
2022-07-31T20:54:42.807Z,22.06
2022-07-31T20:59:46.377Z,22.08
2022-07-31T21:04:49.348Z,22.11
2022-07-31T21:09:52.369Z,22.04
2022-07-31T21:14:55.369Z,22.01
2022-07-31T21:19:58.799Z,22.07
2022-07-31T21:25:04.805Z,22.13
2022-07-31T21:30:08.726Z,22.14
2022-07-31T21:35:12.499Z,22.03
2022-07-31T21:40:16.948Z,21.84
2022-07-31T21:45:21.111Z,21.57
2022-07-31T21:50:29.055Z,21.44
2022-07-31T21:55:33.189Z,21.27
2022-07-31T22:00:36.414Z,21.00
2022-07-31T22:05:59.224Z,20.79
2022-07-31T22:11:02.172Z,20.60
2022-07-31T22:16:06.732Z,20.41
2022-07-31T22:21:10.517Z,20.45
2022-07-31T22:26:15.942Z,20.42
2022-07-31T22:31:20.156Z,20.47
2022-07-31T22:36:25.590Z,20.45
2022-07-31T22:41:29.236Z,20.59
2022-07-31T22:46:33.054Z,20.59
2022-07-31T22:51:38.690Z,20.36
2022-07-31T22:56:43.104Z,20.25
2022-07-31T23:01:46.099Z,20.21
2022-07-31T23:06:49.522Z,20.00
2022-07-31T23:11:52.630Z,19.90
2022-07-31T23:16:56.042Z,19.81
2022-07-31T23:21:59.219Z,20.04
2022-07-31T23:27:08.511Z,20.17
2022-07-31T23:32:12.089Z,20.16
2022-07-31T23:37:15.949Z,20.05
2022-07-31T23:42:38.067Z,20.00
2022-07-31T23:47:45.623Z,19.87
2022-07-31T23:52:49.510Z,19.77
2022-07-31T23:57:52.535Z,19.75
